createdAt,value
2022-10-24T00:02:26.089Z,97487.88
2022-10-24T00:04:52.646Z,97444.28
2022-10-24T00:07:19.106Z,97415.09
2022-10-24T00:09:45.599Z,97421.19
2022-10-24T00:12:12.136Z,97421.22
2022-10-24T00:14:38.660Z,97432.28
2022-10-24T00:17:07.204Z,97435.72
2022-10-24T00:19:33.691Z,97442.56
2022-10-24T00:22:00.183Z,97399.81
2022-10-24T00:24:26.649Z,97384.47
2022-10-24T00:26:53.206Z,97375.06
2022-10-24T00:29:19.695Z,97377.66
2022-10-24T00:31:46.205Z,97337.38
2022-10-24T00:34:12.706Z,97372.50
2022-10-24T00:36:39.186Z,97409.09
2022-10-24T00:39:05.659Z,97404.94
2022-10-24T00:41:37.608Z,97417.75
2022-10-24T00:44:22.092Z,97416.84
2022-10-24T00:46:52.095Z,97417.75
2022-10-24T00:49:20.471Z,97399.75
2022-10-24T00:51:47.246Z,97421.22
2022-10-24T00:54:13.838Z,97413.41
2022-10-24T00:56:47.512Z,97422.03
2022-10-24T00:59:13.981Z,97400.69
2022-10-24T01:01:40.531Z,97399.81
2022-10-24T01:04:07.283Z,97395.47
2022-10-24T01:06:52.427Z,97398.09
2022-10-24T01:09:54.852Z,97390.44
2022-10-24T01:12:53.833Z,97380.09
2022-10-24T01:16:10.970Z,97400.69
2022-10-24T01:18:48.321Z,97397.22
2022-10-24T01:21:30.860Z,97419.50
2022-10-24T01:24:22.005Z,97417.75
2022-10-24T01:26:56.828Z,97407.50
2022-10-24T01:29:23.223Z,97391.25
2022-10-24T01:31:53.224Z,97376.75
2022-10-24T01:34:36.626Z,97356.06
2022-10-24T01:37:13.795Z,97347.47
2022-10-24T01:39:44.623Z,97379.28
2022-10-24T01:42:11.089Z,97387.78
2022-10-24T01:44:39.815Z,97387.84
2022-10-24T01:47:09.248Z,97375.88
2022-10-24T01:49:36.954Z,97357.72
2022-10-24T01:52:05.884Z,97362.91
2022-10-24T01:54:32.406Z,97377.63
2022-10-24T01:56:58.955Z,97373.34
2022-10-24T01:59:28.482Z,97368.22
2022-10-24T02:02:08.948Z,97374.22
2022-10-24T02:04:37.136Z,97369.09
2022-10-24T02:07:04.563Z,97354.56
2022-10-24T02:09:31.051Z,97360.50
2022-10-24T02:11:57.541Z,97359.72
2022-10-24T02:14:50.960Z,97361.38
2022-10-24T02:17:17.561Z,97338.13
2022-10-24T02:19:44.161Z,97349.44
2022-10-24T02:22:28.168Z,97349.44
2022-10-24T02:25:03.434Z,97354.56
2022-10-24T02:27:53.372Z,97342.59
2022-10-24T02:30:21.698Z,97315.94
2022-10-24T02:32:50.623Z,97322.06
2022-10-24T02:35:18.509Z,97323.78
2022-10-24T02:37:48.035Z,97328.00
2022-10-24T02:40:15.424Z,97328.91
2022-10-24T02:42:42.204Z,97326.34
2022-10-24T02:45:09.951Z,97297.13
2022-10-24T02:47:36.429Z,97322.91
2022-10-24T02:50:02.935Z,97317.69
2022-10-24T02:52:30.346Z,97334.03
2022-10-24T02:54:56.906Z,97322.03
2022-10-24T02:57:23.833Z,97318.66
2022-10-24T02:59:50.332Z,97320.34
2022-10-24T03:02:16.852Z,97322.91
2022-10-24T03:04:43.347Z,97320.34
2022-10-24T03:07:09.821Z,97316.94
2022-10-24T03:09:36.311Z,97314.34
2022-10-24T03:12:03.351Z,97323.81
2022-10-24T03:14:29.893Z,97319.50
2022-10-24T03:16:56.471Z,97323.75
2022-10-24T03:19:22.999Z,97319.47
2022-10-24T03:21:49.714Z,97323.81
2022-10-24T03:24:22.897Z,97331.50
2022-10-24T03:26:57.778Z,97338.34
2022-10-24T03:29:24.273Z,97336.63
2022-10-24T03:31:50.743Z,97334.91
2022-10-24T03:34:17.234Z,97324.66
2022-10-24T03:36:43.804Z,97344.34
2022-10-24T03:39:10.335Z,97339.22
2022-10-24T03:41:36.811Z,97346.91
2022-10-24T03:44:03.367Z,97347.72
2022-10-24T03:46:29.834Z,97353.72
2022-10-24T03:48:56.407Z,97357.16
2022-10-24T03:51:22.904Z,97347.72
2022-10-24T03:53:49.387Z,97358.84
2022-10-24T03:56:15.883Z,97366.56
2022-10-24T03:58:42.426Z,97257.59
2022-10-24T04:01:10.380Z,97373.41
2022-10-24T04:03:36.937Z,97363.13
2022-10-24T04:06:03.529Z,97353.75
2022-10-24T04:08:29.995Z,97353.72
2022-10-24T04:10:56.491Z,97361.50
2022-10-24T04:13:23.014Z,97342.59
2022-10-24T04:15:49.486Z,97351.19
2022-10-24T04:18:16.003Z,97349.53
2022-10-24T04:20:42.469Z,97365.78
2022-10-24T04:23:09.004Z,97370.91
2022-10-24T04:25:35.476Z,97370.84
2022-10-24T04:28:04.633Z,97367.50
2022-10-24T04:30:31.196Z,97358.06
2022-10-24T04:32:57.784Z,97353.75
2022-10-24T04:35:25.658Z,97370.06
2022-10-24T04:37:52.582Z,97375.97
2022-10-24T04:40:19.092Z,97376.91
2022-10-24T04:42:45.841Z,97364.94
2022-10-24T04:45:12.728Z,97367.50
2022-10-24T04:47:39.209Z,97367.53
2022-10-24T04:50:06.156Z,97374.34
2022-10-24T04:52:32.636Z,97367.53
2022-10-24T04:54:59.172Z,97377.78
2022-10-24T04:57:25.667Z,97365.81
2022-10-24T04:59:52.133Z,97370.09
2022-10-24T05:02:18.687Z,97381.19
2022-10-24T05:04:45.188Z,97390.63
2022-10-24T05:07:11.715Z,97378.63
2022-10-24T05:09:38.189Z,97376.06
2022-10-24T05:12:04.883Z,97384.63
2022-10-24T05:14:31.411Z,97388.88
2022-10-24T05:16:57.905Z,97392.31
2022-10-24T05:19:24.399Z,97392.31
2022-10-24T05:21:50.881Z,97389.75
2022-10-24T05:24:17.436Z,97379.47
2022-10-24T05:26:43.953Z,97379.47
2022-10-24T05:29:10.482Z,97380.34
2022-10-24T05:31:37.235Z,97377.78
2022-10-24T05:34:03.738Z,97388.03
2022-10-24T05:36:30.280Z,97387.16
2022-10-24T05:38:56.788Z,97399.13
2022-10-24T05:41:23.288Z,97391.34
2022-10-24T05:43:49.792Z,97383.72
2022-10-24T05:46:16.273Z,97392.28
2022-10-24T05:48:42.765Z,97397.41
2022-10-24T05:51:09.344Z,97413.69
2022-10-24T05:53:35.802Z,97410.22
2022-10-24T05:56:02.339Z,97418.81
2022-10-24T05:58:28.851Z,97418.78
2022-10-24T06:00:55.325Z,97419.63
2022-10-24T06:03:22.258Z,97417.06
2022-10-24T06:05:49.382Z,97413.66
2022-10-24T06:08:15.870Z,97401.59
2022-10-24T06:10:45.524Z,97398.16
2022-10-24T06:13:12.008Z,97397.34
2022-10-24T06:15:38.479Z,97390.56
2022-10-24T06:18:04.979Z,97394.84
2022-10-24T06:20:31.455Z,97389.59
2022-10-24T06:22:57.969Z,97398.25
2022-10-24T06:25:24.484Z,97398.25
2022-10-24T06:27:50.984Z,97392.22
2022-10-24T06:30:17.856Z,97393.06
2022-10-24T06:32:44.801Z,97404.16
2022-10-24T06:35:13.453Z,97409.28
2022-10-24T06:37:41.841Z,97412.69
2022-10-24T06:40:11.359Z,97409.25
2022-10-24T06:42:37.868Z,97401.59
2022-10-24T06:45:04.718Z,97392.22
2022-10-24T06:47:31.943Z,97375.94
2022-10-24T06:49:58.407Z,97372.63
2022-10-24T06:52:24.928Z,97377.75
2022-10-24T06:54:51.463Z,97381.97
2022-10-24T06:57:18.169Z,97399.91
2022-10-24T06:59:44.984Z,97377.75
2022-10-24T07:02:14.859Z,97267.88
2022-10-24T07:04:41.529Z,97365.78
2022-10-24T07:07:08.084Z,97367.44
2022-10-24T07:09:34.603Z,97382.03
2022-10-24T07:12:01.116Z,97379.38
2022-10-24T07:14:28.380Z,97379.28
2022-10-24T07:16:54.941Z,97392.28
2022-10-24T07:19:21.444Z,97393.16
2022-10-24T07:21:47.964Z,97391.44
2022-10-24T07:24:14.478Z,97401.69
2022-10-24T07:26:41.008Z,97388.88
2022-10-24T07:29:07.500Z,97390.63
2022-10-24T07:31:34.810Z,97388.91
2022-10-24T07:34:02.340Z,97379.53
2022-10-24T07:36:30.577Z,97365.00
2022-10-24T07:38:57.443Z,97372.69
2022-10-24T07:41:24.780Z,97377.81
2022-10-24T07:43:51.872Z,97370.13
2022-10-24T07:46:18.897Z,97357.28
2022-10-24T07:48:45.498Z,97335.91
2022-10-24T07:51:13.353Z,97361.56
2022-10-24T07:53:40.391Z,97394.88
2022-10-24T07:56:09.441Z,97410.25
2022-10-24T07:58:36.425Z,97409.38
2022-10-24T08:01:07.568Z,97405.72
2022-10-24T08:03:34.072Z,97431.66
2022-10-24T08:06:00.613Z,97437.59
2022-10-24T08:08:36.537Z,97435.91
2022-10-24T08:11:11.030Z,97422.91
2022-10-24T08:13:37.531Z,97424.78
2022-10-24T08:16:08.473Z,97408.28
2022-10-24T08:18:39.437Z,97421.34
2022-10-24T08:21:08.456Z,97427.34
2022-10-24T08:23:35.314Z,97436.75
2022-10-24T08:26:05.361Z,97429.91
2022-10-24T08:28:31.868Z,97433.34
2022-10-24T08:31:06.299Z,97422.22
2022-10-24T08:33:32.857Z,97430.78
2022-10-24T08:36:01.480Z,97432.47
2022-10-24T08:38:28.549Z,97434.22
2022-10-24T08:40:55.421Z,97423.97
2022-10-24T08:43:21.996Z,97433.34
2022-10-24T08:46:36.606Z,97432.50
2022-10-24T08:49:14.293Z,97421.41
2022-10-24T08:51:52.383Z,97405.97
2022-10-24T08:54:23.241Z,97421.44
2022-10-24T08:56:50.219Z,97403.19
2022-10-24T08:59:16.722Z,97418.91
2022-10-24T09:02:03.423Z,97404.94
2022-10-24T09:04:36.431Z,97414.41
2022-10-24T09:07:03.549Z,97421.44
2022-10-24T09:09:33.884Z,97422.34
2022-10-24T09:12:07.040Z,97424.06
2022-10-24T09:14:35.456Z,97337.56
2022-10-24T09:17:14.049Z,97418.97
2022-10-24T09:19:40.936Z,97425.78
2022-10-24T09:22:07.413Z,97439.34
2022-10-24T09:24:45.375Z,97467.69
2022-10-24T09:27:17.340Z,97484.75
2022-10-24T09:29:43.932Z,97471.81
2022-10-24T09:32:19.163Z,97494.19
2022-10-24T09:34:45.651Z,97483.91
2022-10-24T09:37:36.467Z,97475.28
2022-10-24T09:40:26.905Z,97477.97
2022-10-24T09:43:14.585Z,97469.41
2022-10-24T09:45:45.308Z,97460.88
2022-10-24T09:48:32.542Z,97476.22
2022-10-24T09:50:59.287Z,97489.06
2022-10-24T09:53:32.535Z,97488.19
2022-10-24T09:56:00.964Z,97486.38
2022-10-24T09:58:33.141Z,97487.34
2022-10-24T10:01:19.149Z,97488.19
2022-10-24T10:04:08.882Z,97506.16
2022-10-24T10:06:36.812Z,97513.81
2022-10-24T10:09:03.283Z,97514.66
2022-10-24T10:11:35.080Z,97515.50
2022-10-24T10:14:04.135Z,97408.00
2022-10-24T10:16:34.199Z,97515.50
2022-10-24T10:19:13.313Z,97506.03
2022-10-24T10:22:00.533Z,97508.69
2022-10-24T10:24:35.975Z,97512.09
2022-10-24T10:27:02.550Z,97487.06
2022-10-24T10:29:29.026Z,97479.63
2022-10-24T10:32:11.731Z,97425.63
2022-10-24T10:34:39.983Z,97455.69
2022-10-24T10:37:27.774Z,97504.41
2022-10-24T10:40:31.639Z,97492.41
2022-10-24T10:43:16.409Z,97470.19
2022-10-24T10:45:47.802Z,97469.34
2022-10-24T10:48:46.700Z,97481.28
2022-10-24T10:51:31.609Z,97489.81
2022-10-24T10:54:07.115Z,97480.44
2022-10-24T10:56:48.443Z,97483.00
2022-10-24T10:59:33.576Z,97480.41
2022-10-24T11:02:08.492Z,97450.50
2022-10-24T11:04:58.883Z,97443.69
2022-10-24T11:07:34.885Z,97455.53
2022-10-24T11:10:03.876Z,97467.63
2022-10-24T11:12:36.237Z,97454.59
2022-10-24T11:15:23.324Z,97485.63
2022-10-24T11:17:58.400Z,97503.56
2022-10-24T11:20:27.515Z,97507.91
2022-10-24T11:23:04.960Z,97518.16
2022-10-24T11:25:40.060Z,97514.72
2022-10-24T11:28:21.508Z,97501.91
2022-10-24T11:31:01.136Z,97519.84
2022-10-24T11:33:43.927Z,97405.63
2022-10-24T11:36:52.092Z,97520.72
2022-10-24T11:39:31.541Z,97516.41
2022-10-24T11:42:16.312Z,97508.78
2022-10-24T11:44:58.996Z,97506.22
2022-10-24T11:47:25.395Z,97495.09
2022-10-24T11:50:03.708Z,97481.25
2022-10-24T11:52:32.703Z,97499.38
2022-10-24T11:55:12.072Z,97480.41
2022-10-24T11:57:39.049Z,97476.16
2022-10-24T12:00:06.029Z,97476.31
2022-10-24T12:03:02.841Z,97463.38
2022-10-24T12:05:58.740Z,97465.22
2022-10-24T12:09:26.984Z,97465.22
2022-10-24T12:12:12.630Z,97452.38
2022-10-24T12:15:09.101Z,97438.66
2022-10-24T12:17:53.657Z,97413.06
2022-10-24T12:20:21.108Z,97401.00
2022-10-24T12:22:47.932Z,97410.47
2022-10-24T12:25:14.523Z,97400.19
2022-10-24T12:27:41.318Z,97399.22
2022-10-24T12:30:13.788Z,97419.84
2022-10-24T12:32:47.571Z,97395.69
2022-10-24T12:35:34.066Z,97406.16
2022-10-24T12:38:03.673Z,97404.44
2022-10-24T12:40:45.611Z,97372.84
2022-10-24T12:43:31.503Z,97328.38
2022-10-24T12:46:01.581Z,97321.53
2022-10-24T12:48:32.690Z,97339.50
2022-10-24T12:51:02.369Z,97315.53
2022-10-24T12:53:39.946Z,97321.53
2022-10-24T12:56:09.187Z,97322.34
2022-10-24T12:58:37.100Z,97326.56
2022-10-24T13:01:26.028Z,97314.50
2022-10-24T13:04:16.638Z,97361.69
2022-10-24T13:07:09.210Z,97377.97
2022-10-24T13:09:53.913Z,97378.78
2022-10-24T13:12:45.324Z,97383.06
2022-10-24T13:15:40.288Z,97390.75
2022-10-24T13:18:34.761Z,97406.16
2022-10-24T13:21:15.280Z,97390.50
2022-10-24T13:23:43.374Z,97411.34
2022-10-24T13:26:10.075Z,97408.75
2022-10-24T13:28:40.304Z,97411.34
2022-10-24T13:31:06.732Z,97395.09
2022-10-24T13:33:33.152Z,97383.16
2022-10-24T13:36:18.045Z,97360.78
2022-10-24T13:38:59.744Z,97383.97
2022-10-24T13:42:05.535Z,97367.59
2022-10-24T13:44:38.783Z,97378.84
2022-10-24T13:47:16.724Z,97377.13
2022-10-24T13:50:17.976Z,97380.56
2022-10-24T13:52:54.839Z,97376.97
2022-10-24T13:55:38.537Z,97392.50
2022-10-24T13:58:12.728Z,97392.50
2022-10-24T14:00:40.994Z,97393.19
2022-10-24T14:03:16.899Z,97411.28
2022-10-24T14:05:53.171Z,97413.88
2022-10-24T14:08:59.749Z,97424.97
2022-10-24T14:11:30.678Z,97416.44
2022-10-24T14:14:02.628Z,97409.44
2022-10-24T14:16:33.777Z,97417.28
2022-10-24T14:19:27.207Z,97419.00
2022-10-24T14:21:57.560Z,97421.56
2022-10-24T14:24:24.074Z,97417.25
2022-10-24T14:26:51.790Z,97407.75
2022-10-24T14:29:22.401Z,97419.78
2022-10-24T14:31:58.420Z,97378.19
2022-10-24T14:34:24.947Z,97424.97
2022-10-24T14:36:51.500Z,97422.41
2022-10-24T14:39:23.668Z,97428.41
2022-10-24T14:41:51.263Z,97419.84
2022-10-24T14:44:18.367Z,97415.53
2022-10-24T14:46:46.139Z,97420.72
2022-10-24T14:49:27.864Z,97424.16
2022-10-24T14:52:01.413Z,97422.31
2022-10-24T14:54:32.515Z,97407.69
2022-10-24T14:57:00.718Z,97411.13
2022-10-24T14:59:37.688Z,97430.13
2022-10-24T15:02:22.993Z,97423.31
2022-10-24T15:04:51.275Z,97414.72
2022-10-24T15:07:29.735Z,97423.25
2022-10-24T15:09:59.976Z,97424.97
2022-10-24T15:12:41.167Z,97435.25
2022-10-24T15:15:22.945Z,97442.91
2022-10-24T15:17:54.035Z,97446.22
2022-10-24T15:20:22.708Z,97453.16
2022-10-24T15:22:50.538Z,97457.47
2022-10-24T15:27:59.454Z,97453.94
2022-10-24T15:30:34.002Z,97457.41
2022-10-24T15:33:01.547Z,97452.25
2022-10-24T15:35:28.520Z,97446.28
2022-10-24T15:37:59.946Z,97442.00
2022-10-24T15:40:31.120Z,97426.53
2022-10-24T15:42:57.612Z,97443.72
2022-10-24T15:45:24.061Z,97450.53
2022-10-24T15:47:50.786Z,97449.72
2022-10-24T15:50:18.635Z,97454.00
2022-10-24T15:52:47.956Z,97447.97
2022-10-24T15:55:22.942Z,97448.91
2022-10-24T15:57:49.742Z,97450.56
2022-10-24T16:00:17.233Z,97453.16
2022-10-24T16:02:45.800Z,97450.47
2022-10-24T16:05:39.860Z,97461.72
2022-10-24T16:08:06.479Z,97464.25
2022-10-24T16:10:32.967Z,97470.25
2022-10-24T16:12:59.432Z,97464.28
2022-10-24T16:15:27.820Z,97474.53
2022-10-24T16:17:54.383Z,97471.09
2022-10-24T16:20:21.041Z,97471.09
2022-10-24T16:22:47.648Z,97462.41
2022-10-24T16:25:21.483Z,97471.06
2022-10-24T16:27:50.785Z,97477.91
2022-10-24T16:30:18.982Z,97480.50
2022-10-24T16:32:45.820Z,97479.63
2022-10-24T16:35:24.083Z,97465.00
2022-10-24T16:37:51.544Z,97477.91
2022-10-24T16:40:18.261Z,97489.84
2022-10-24T16:42:45.135Z,97486.38
2022-10-24T16:45:11.855Z,97491.50
2022-10-24T16:47:38.378Z,97494.97
2022-10-24T16:50:05.395Z,97493.31
2022-10-24T16:52:31.913Z,97493.31
2022-10-24T16:54:58.405Z,97497.56
2022-10-24T16:59:56.347Z,97496.69
2022-10-24T17:02:22.839Z,97497.56
2022-10-24T17:04:49.303Z,97498.41
2022-10-24T17:07:15.818Z,97499.25
2022-10-24T17:09:42.383Z,97492.41
2022-10-24T17:12:08.958Z,97499.25
2022-10-24T17:14:36.512Z,97508.69
2022-10-24T17:17:03.944Z,97510.38
2022-10-24T17:19:30.950Z,97510.41
2022-10-24T17:21:57.578Z,97507.84
2022-10-24T17:24:25.495Z,97502.72
2022-10-24T17:26:52.187Z,97494.16
2022-10-24T17:29:29.553Z,97492.47
2022-10-24T17:31:56.173Z,97493.38
2022-10-24T17:34:22.898Z,97476.84
2022-10-24T17:37:08.128Z,97483.91
2022-10-24T17:39:45.558Z,97481.25
2022-10-24T17:42:12.439Z,97483.06
2022-10-24T17:44:39.470Z,97489.88
2022-10-24T17:47:06.251Z,97486.44
2022-10-24T17:49:32.775Z,97483.00
2022-10-24T17:51:59.308Z,97485.56
2022-10-24T17:54:25.768Z,97492.47
2022-10-24T17:56:52.286Z,97483.03
2022-10-24T17:59:18.800Z,97472.72
2022-10-24T18:01:45.381Z,97489.00
2022-10-24T18:04:12.010Z,97497.59
2022-10-24T18:06:42.997Z,97502.72
2022-10-24T18:09:09.861Z,97502.72
2022-10-24T18:11:36.464Z,97496.72
2022-10-24T18:14:03.347Z,97498.47
2022-10-24T18:16:30.720Z,97500.13
2022-10-24T18:18:57.451Z,97501.06
2022-10-24T18:21:24.744Z,97495.91
2022-10-24T18:23:52.099Z,97507.00
2022-10-24T18:26:20.812Z,97514.69
2022-10-24T18:28:48.655Z,97503.63
2022-10-24T18:31:19.683Z,97493.38
2022-10-24T18:33:46.184Z,97492.53
2022-10-24T18:36:17.459Z,97494.22
2022-10-24T18:38:44.154Z,97493.41
2022-10-24T18:41:37.620Z,97501.94
2022-10-24T18:44:25.281Z,97477.00
2022-10-24T18:46:53.441Z,97482.28
2022-10-24T18:49:20.189Z,97488.31
2022-10-24T18:51:52.041Z,97464.16
2022-10-24T18:56:51.046Z,97474.47
2022-10-24T18:59:19.575Z,97490.06
2022-10-24T19:01:59.074Z,97478.09
2022-10-24T19:04:26.035Z,97496.91
2022-10-24T19:06:57.110Z,97489.22
2022-10-24T19:09:24.614Z,97493.50
2022-10-24T19:11:52.491Z,97491.81
2022-10-24T19:14:19.443Z,97494.38
2022-10-24T19:16:46.722Z,97492.69
2022-10-24T19:19:16.290Z,97474.50
2022-10-24T19:21:44.338Z,97487.50
2022-10-24T19:24:12.984Z,97487.59
2022-10-24T19:26:39.503Z,97496.09
2022-10-24T19:29:06.092Z,97497.00
2022-10-24T19:31:32.668Z,97493.59
2022-10-24T19:33:59.216Z,97485.88
2022-10-24T19:38:57.223Z,97488.41
2022-10-24T19:41:23.804Z,97489.19
2022-10-24T19:43:52.935Z,97491.72
2022-10-24T19:46:20.467Z,97491.66
2022-10-24T19:48:49.253Z,97488.19
2022-10-24T19:51:16.264Z,97481.22
2022-10-24T19:53:43.413Z,97486.38
2022-10-24T19:56:20.050Z,97478.53
2022-10-24T19:58:49.163Z,97493.97
2022-10-24T20:01:20.190Z,97497.34
2022-10-24T20:03:47.615Z,97497.28
2022-10-24T20:06:14.217Z,97501.50
2022-10-24T20:08:40.700Z,97492.97
2022-10-24T20:11:07.552Z,97499.78
2022-10-24T20:13:34.043Z,97499.72
2022-10-24T20:16:07.532Z,97499.72
2022-10-24T20:18:35.123Z,97503.09
2022-10-24T20:21:03.965Z,97507.38
2022-10-24T20:23:30.642Z,97517.63
2022-10-24T20:26:06.252Z,97517.59
2022-10-24T20:28:37.237Z,97518.44
2022-10-24T20:31:03.992Z,97511.53
2022-10-24T20:33:30.475Z,97533.91
2022-10-24T20:36:00.490Z,97526.19
2022-10-24T20:38:27.565Z,97539.91
2022-10-24T20:40:54.116Z,97537.34
2022-10-24T20:43:20.610Z,97536.56
2022-10-24T20:45:47.110Z,97532.19
2022-10-24T20:48:13.628Z,97529.69
2022-10-24T20:50:40.159Z,97527.13
2022-10-24T20:53:06.636Z,97532.31
2022-10-24T20:55:44.576Z,97543.44
2022-10-24T20:58:12.913Z,97541.69
2022-10-24T21:03:14.219Z,97551.16
2022-10-24T21:05:40.788Z,97557.13
2022-10-24T21:08:07.271Z,97558.00
2022-10-24T21:10:33.787Z,97557.16
2022-10-24T21:13:00.281Z,97568.25
2022-10-24T21:15:26.776Z,97566.59
2022-10-24T21:17:53.270Z,97570.06
2022-10-24T21:20:19.806Z,97568.34
2022-10-24T21:22:46.298Z,97558.84
2022-10-24T21:25:12.782Z,97553.72
2022-10-24T21:27:39.276Z,97557.28
2022-10-24T21:30:09.785Z,97582.91
2022-10-24T21:32:38.777Z,97547.75
2022-10-24T21:35:05.658Z,97555.50
2022-10-24T21:37:32.707Z,97564.97
2022-10-24T21:39:59.234Z,97574.38
2022-10-24T21:42:25.784Z,97570.94
2022-10-24T21:44:52.274Z,97565.78
2022-10-24T21:47:18.726Z,97570.13
2022-10-24T21:49:45.240Z,97563.28
2022-10-24T21:52:11.716Z,97560.72
2022-10-24T21:54:38.199Z,97574.41
2022-10-24T21:57:04.695Z,97563.28
2022-10-24T21:59:31.175Z,97557.16
2022-10-24T22:01:57.768Z,97567.53
2022-10-24T22:04:24.315Z,97560.69
2022-10-24T22:06:50.854Z,97574.41
2022-10-24T22:09:19.245Z,97575.28
2022-10-24T22:11:45.806Z,97577.84
2022-10-24T22:14:13.646Z,97577.84
2022-10-24T22:16:40.186Z,97577.78
2022-10-24T22:19:06.871Z,97577.78
2022-10-24T22:21:35.563Z,97588.97
2022-10-24T22:24:13.093Z,97575.19
2022-10-24T22:26:39.668Z,97575.25
2022-10-24T22:29:06.456Z,97582.97
2022-10-24T22:31:33.294Z,97593.28
2022-10-24T22:33:59.876Z,97595.81
2022-10-24T22:37:05.278Z,97612.03
2022-10-24T22:39:32.035Z,97621.41
2022-10-24T22:41:58.771Z,97634.28
2022-10-24T22:44:25.510Z,97641.13
2022-10-24T22:47:00.972Z,97639.41
2022-10-24T22:49:42.588Z,97650.50
2022-10-24T22:52:12.799Z,97659.06
2022-10-24T22:54:39.603Z,97643.66
2022-10-24T22:57:06.425Z,97642.81
2022-10-24T22:59:33.338Z,97653.06
2022-10-24T23:02:06.839Z,97641.06
2022-10-24T23:04:51.601Z,97645.38
2022-10-24T23:07:26.521Z,97638.53
2022-10-24T23:09:54.211Z,97637.69
2022-10-24T23:12:21.242Z,97625.75
2022-10-24T23:14:48.168Z,97624.00
2022-10-24T23:17:28.631Z,97619.72
2022-10-24T23:19:55.532Z,97621.44
2022-10-24T23:22:32.320Z,97618.88
2022-10-24T23:25:00.112Z,97624.88
2022-10-24T23:27:34.260Z,97613.75
2022-10-24T23:30:25.172Z,97612.88
2022-10-24T23:32:51.874Z,97600.91
2022-10-24T23:35:19.116Z,97603.44
2022-10-24T23:37:49.714Z,97623.13
2022-10-24T23:40:32.288Z,97622.25
2022-10-24T23:42:59.014Z,97621.28
2022-10-24T23:45:27.463Z,97622.25
2022-10-24T23:48:19.743Z,97616.28
2022-10-24T23:50:54.532Z,97618.84
2022-10-24T23:53:30.024Z,97622.25
2022-10-24T23:55:56.824Z,97621.41
2022-10-24T23:58:23.376Z,97625.66
